Reading Regional Carl A Spaatz Field
KRDG : now visible

Airfield :











YOU CAN JOIN US ON...

 
LOGIN :

Register | Disclaimer

   EN    FR    IT 

 









Legend :    VFR   Marginal VFR   IFR   Intensive IFR   Very Intensive IFR
Visi :
Ceiling :
>= 8 km
>= 3000ft
5 to 8 km
1000 to 3000 ft
1500m to 5 km
500 to 1000 ft
800 to 1500m
200 to 500 ft
< 800m
< 200 ft
Symbols :   Thunderstorms  Fog  Heavy snow  Heavy precipitations  Wind > 20 kt






- Airport Elevation : 344 ft
- IATA code : RDG


KRDG - Reading Regional Carl A Spaatz Field

CURRENT METAR :
  • 080554Z AUTO 19005KT 10SM BKN090 13/10 A2954 RMK AO2 LTG DSNT SW AND W SLP008 T01330100 10178 20133 58038

EXPIRED METARs :
  • 080454Z AUTO 00000KT 10SM CLR 14/10 A2959 RMK AO2 SLP024 T01390100 402060050
  • 080354Z AUTO 19005KT 10SM CLR 14/11 A2963 RMK AO2 SLP036 T01440106

TAF KRDG
Valid from the 08 at 06:00 until the 09 at 06:00 UTC


080534Z 0806/0906 VRB04KT P6SM -SHRA VCTS OVC070CB
TEMPO 0806/0808 2SM -SHRA OVC020
FM080900 25006KT P6SM VCSH OVC050 WS020/30035KT
FM081100 25006KT P6SM OVC080
FM081400 28007KT P6SM SCT070
FM081900 30010KT P6SM SCT080



MET'MAP, your aeronautical weather chart ! - Copyright ORBIFLY December 2007 - Disclaimer

ORBIFLY MET'MAP TEAM :

Programming & Development : Alexandra Zaïnal
Concept & original design : Baudouin d'Aumeries
Assistance for programming : Marc-Olivier Méhu
Technical & hardware support : Manuel Goepfert

Contact : metmap@orbifly.com




SOURCES & CREDITS :

   NOAA       Earth
Advisory